Time;durP1;ratioP1;P1;durP2;ratioP2;P2;SDS_P1;SDS_P2;PMS_P1;PMS_P2;Temp;Humidity;BMP_temperature;BMP_pressure;BME280_temperature;BME280_humidity;BME280_pressure;Samples;Min_cycle;Max_cycle;Signal;HPM_P1;HPM_P2
2022/06/18 00:00:41;;;;;;;;;;;;;;;-142.75;100.00;76097.88;5029764;28;20011;-69
2022/06/18 00:03:08;;;;;;;;;;;;;;;-142.75;100.00;76095.91;5029867;28;20055;-68
2022/06/18 00:05:33;;;;;;;;;;;;;;;-142.75;100.00;76101.81;5029747;28;19925;-70
2022/06/18 00:07:59;;;;;;;;;;;;;;;-142.75;100.00;76101.81;5023089;28;19917;-69
2022/06/18 00:10:26;;;;;;;;;;;;;;;-142.75;100.00;76101.81;5019933;28;20433;-69
2022/06/18 00:15:38;;;;;;;;;;;;;;;-142.75;100.00;76099.84;5010033;28;19963;-70
2022/06/18 00:18:05;;;;;;;;;;;;;;;-142.75;100.00;76101.81;5009390;28;19917;-68
2022/06/18 00:20:32;;;;;;;;;;;;;;;-142.75;100.00;76109.69;5009960;28;19917;-69
2022/06/18 00:22:59;;;;;;;;;;;;;;;-142.75;100.00;76113.63;4992346;28;19917;-72
2022/06/18 00:25:35;;;;;;;;;;;;;;;-142.75;100.00;76117.56;5008388;28;19969;-69
2022/06/18 00:28:01;;;;;;;;;;;;;;;-142.75;100.00;76121.50;5016978;28;19925;-71
2022/06/18 00:30:28;;;;;;;;;;;;;;;-142.75;100.00;76115.59;5012218;28;20004;-70
2022/06/18 00:32:53;;;;;;;;;;;;;;;-142.75;100.00;76119.53;4995728;28;19939;-70
2022/06/18 00:35:18;;;;;;;;;;;;;;;-142.75;100.00;76121.50;5015698;28;20390;-70
2022/06/18 00:37:44;;;;;;;;;;;;;;;-142.75;100.00;76123.47;5012421;28;20076;-69
2022/06/18 00:40:16;;;;;;;;;;;;;;;-142.75;100.00;76129.38;5014504;28;19925;-71
2022/06/18 00:42:42;;;;;;;;;;;;;;;-142.75;100.00;76125.44;5014528;28;20375;-71
2022/06/18 00:45:11;;;;;;;;;;;;;;;-142.75;100.00;76119.53;5011228;28;19924;-70
2022/06/18 00:47:42;;;;;;;;;;;;;;;-142.75;100.00;76121.50;5008520;28;19925;-70
2022/06/18 00:50:13;;;;;;;;;;;;;;;-142.75;100.00;76127.41;5009526;28;19917;-69
2022/06/18 00:53:05;;;;;;;;;;;;;;;-142.75;100.00;76129.38;5009532;28;19918;-70
2022/06/18 00:55:33;;;;;;;;;;;;;;;-142.75;100.00;76129.38;4989817;28;19922;-69
2022/06/18 00:57:58;;;;;;;;;;;;;;;-142.75;100.00;76133.31;5009238;28;19925;-71
2022/06/18 01:00:28;;;;;;;;;;;;;;;-142.75;100.00;76129.38;5020396;28;19975;-71
2022/06/18 01:02:53;;;;;;;;;;;;;;;-142.75;100.00;76129.38;5029032;28;19917;-70
2022/06/18 01:05:21;;;;;;;;;;;;;;;-142.75;100.00;76135.28;5029008;28;19925;-70
2022/06/18 01:07:48;;;;;;;;;;;;;;;-142.75;100.00;76133.31;5028756;28;19925;-71
2022/06/18 01:10:15;;;;;;;;;;;;;;;-142.75;100.00;76141.19;5028751;28;19921;-71
2022/06/18 01:12:41;;;;;;;;;;;;;;;-142.75;100.00;76139.22;5028655;28;19920;-69
2022/06/18 01:15:08;;;;;;;;;;;;;;;-142.75;100.00;76137.25;5028762;28;19935;-69
2022/06/18 01:17:35;;;;;;;;;;;;;;;-142.75;100.00;76149.06;5028757;28;19917;-70
2022/06/18 01:20:04;;;;;;;;;;;;;;;-142.75;100.00;76143.16;5028510;28;19917;-70
2022/06/18 01:22:42;;;;;;;;;;;;;;;-142.75;100.00;76135.28;5010754;28;20367;-70
2022/06/18 01:25:08;;;;;;;;;;;;;;;-142.75;100.00;76135.28;5029788;28;19917;-70
2022/06/18 01:27:34;;;;;;;;;;;;;;;-142.75;100.00;76135.28;5028735;28;19970;-70
2022/06/18 01:30:00;;;;;;;;;;;;;;;-142.75;100.00;76135.28;5010603;28;19918;-69
2022/06/18 01:32:25;;;;;;;;;;;;;;;-142.75;100.00;76129.38;5028486;28;19923;-70
2022/06/18 01:34:51;;;;;;;;;;;;;;;-142.75;100.00;76143.16;5028762;28;20023;-70
2022/06/18 01:37:16;;;;;;;;;;;;;;;-142.75;100.00;76141.19;5028755;28;20259;-70
2022/06/18 01:39:43;;;;;;;;;;;;;;;-142.75;100.00;76145.13;5010767;28;19967;-71
2022/06/18 01:42:26;;;;;;;;;;;;;;;-142.75;100.00;76145.13;5014496;28;19917;-69
2022/06/18 01:45:12;;;;;;;;;;;;;;;-142.75;100.00;76149.06;5032342;28;19925;-70
2022/06/18 01:47:45;;;;;;;;;;;;;;;-142.75;100.00;76145.13;5031546;28;20019;-69
2022/06/18 01:50:14;;;;;;;;;;;;;;;-142.75;100.00;76149.06;5032035;28;19924;-69
2022/06/18 01:52:43;;;;;;;;;;;;;;;-142.75;100.00;76156.94;5032347;28;20379;-70
2022/06/18 01:55:11;;;;;;;;;;;;;;;-142.75;100.00;76168.75;5033009;28;19921;-70
2022/06/18 01:57:39;;;;;;;;;;;;;;;-142.75;100.00;76168.75;5032013;28;19928;-72
2022/06/18 02:00:07;;;;;;;;;;;;;;;-142.75;100.00;76172.69;5031747;28;19947;-69
2022/06/18 02:02:32;;;;;;;;;;;;;;;-142.75;100.00;76172.69;5032017;28;19928;-69
2022/06/18 02:04:57;;;;;;;;;;;;;;;-142.75;100.00;76174.66;5014210;28;20015;-71
2022/06/18 02:07:23;;;;;;;;;;;;;;;-142.75;100.00;76182.53;5032066;28;20414;-70
2022/06/18 02:09:52;;;;;;;;;;;;;;;-142.75;100.00;76188.44;5013792;28;19951;-70
2022/06/18 02:12:21;;;;;;;;;;;;;;;-142.75;100.00;76194.34;5031771;28;20454;-70
2022/06/18 02:14:49;;;;;;;;;;;;;;;-142.75;100.00;76192.38;5031826;28;19963;-71
2022/06/18 02:17:17;;;;;;;;;;;;;;;-142.75;100.00;76200.25;5014153;28;20015;-70
2022/06/18 02:19:44;;;;;;;;;;;;;;;-142.75;100.00;76204.16;5013837;28;19962;-71
2022/06/18 02:22:10;;;;;;;;;;;;;;;-142.75;100.00;76202.19;5031833;28;19939;-69
2022/06/18 02:24:36;;;;;;;;;;;;;;;-142.75;100.00;76208.09;5016695;28;19980;-70
2022/06/18 02:27:02;;;;;;;;;;;;;;;-142.75;100.00;76219.91;5013101;28;19948;-70
2022/06/18 02:29:29;;;;;;;;;;;;;;;-142.75;100.00;76219.91;5021566;28;19926;-71
2022/06/18 02:31:54;;;;;;;;;;;;;;;-142.75;100.00;76219.91;5027556;28;19965;-70
2022/06/18 02:34:22;;;;;;;;;;;;;;;-142.75;100.00;76239.59;5031381;28;19968;-70
2022/06/18 02:36:47;;;;;;;;;;;;;;;-142.75;100.00;76243.53;5022078;28;19925;-71
2022/06/18 02:39:32;;;;;;;;;;;;;;;-142.75;100.00;76243.53;4999266;28;19917;-72
2022/06/18 02:42:06;;;;;;;;;;;;;;;-142.75;100.00;76239.59;5025426;28;19925;-70
2022/06/18 02:44:32;;;;;;;;;;;;;;;-142.75;100.00;76241.56;5000989;28;20433;-70
2022/06/18 02:47:00;;;;;;;;;;;;;;;-142.75;100.00;76255.34;5014462;28;19917;-70
2022/06/18 02:49:25;;;;;;;;;;;;;;;-142.75;100.00;76263.22;4998885;28;19940;-70
2022/06/18 02:51:50;;;;;;;;;;;;;;;-142.75;100.00;76255.34;5024583;28;21488;-70
2022/06/18 02:54:17;;;;;;;;;;;;;;;-142.75;100.00;76259.28;5031561;28;20014;-70
2022/06/18 02:56:43;;;;;;;;;;;;;;;-142.75;100.00;76257.31;5025434;28;19925;-72
2022/06/18 02:59:08;;;;;;;;;;;;;;;-142.75;100.00;76277.00;5021985;28;20116;-70
2022/06/18 03:01:34;;;;;;;;;;;;;;;-142.75;100.00;76273.06;5029742;28;19929;-70
2022/06/18 03:04:00;;;;;;;;;;;;;;;-142.75;100.00;76275.03;5030906;28;19930;-70
2022/06/18 03:06:27;;;;;;;;;;;;;;;-142.75;100.00;76280.94;5013223;28;19917;-71
2022/06/18 03:08:52;;;;;;;;;;;;;;;-142.75;100.00;76288.81;5030555;28;20019;-69
2022/06/18 03:14:02;;;;;;;;;;;;;;;-142.75;100.00;76310.47;5011211;28;20327;-70
2022/06/18 03:16:28;;;;;;;;;;;;;;;-142.75;100.00;76310.47;5011036;28;19933;-70
2022/06/18 03:18:55;;;;;;;;;;;;;;;-142.75;100.00;76326.22;5010599;28;20395;-68
2022/06/18 03:21:26;;;;;;;;;;;;;;;-142.75;100.00;76338.03;5011031;28;19918;-70
2022/06/18 03:23:53;;;;;;;;;;;;;;;-142.75;100.00;76351.81;5011060;28;20008;-69
2022/06/18 03:26:18;;;;;;;;;;;;;;;-142.75;100.00;76343.94;5011866;28;20561;-70
2022/06/18 03:28:44;;;;;;;;;;;;;;;-142.75;100.00;76353.78;5010706;28;19921;-70
2022/06/18 03:31:09;;;;;;;;;;;;;;;-142.75;100.00;76353.78;5010766;28;19925;-70
2022/06/18 03:33:35;;;;;;;;;;;;;;;-142.75;100.00;76355.72;4992914;28;20338;-69
2022/06/18 03:36:02;;;;;;;;;;;;;;;-142.75;100.00;76361.63;5010852;28;19922;-70
2022/06/18 03:38:27;;;;;;;;;;;;;;;-142.75;100.00;76373.44;5010464;28;19918;-70
2022/06/18 03:40:52;;;;;;;;;;;;;;;-142.75;100.00;76387.22;5022934;28;20379;-70
2022/06/18 03:43:22;;;;;;;;;;;;;;;-142.75;100.00;76387.22;5021828;28;19925;-70
2022/06/18 03:45:49;;;;;;;;;;;;;;;-142.75;100.00;76385.25;5019821;28;19921;-71
2022/06/18 03:48:26;;;;;;;;;;;;;;;-142.75;100.00;76385.25;5019768;28;19917;-70
2022/06/18 03:50:51;;;;;;;;;;;;;;;-142.75;100.00;76395.09;5015961;28;20302;-68
2022/06/18 03:53:17;;;;;;;;;;;;;;;-142.75;100.00;76397.06;5013138;28;20000;-70
2022/06/18 03:55:43;;;;;;;;;;;;;;;-142.75;100.00;76404.94;5011180;28;20306;-70
2022/06/18 03:58:08;;;;;;;;;;;;;;;-142.75;100.00;76420.69;5029704;28;20298;-70
2022/06/18 04:00:33;;;;;;;;;;;;;;;-142.75;100.00;76424.63;5029918;28;20401;-70
2022/06/18 04:02:59;;;;;;;;;;;;;;;-142.75;100.00;76434.47;5026629;28;19917;-69
2022/06/18 04:05:24;;;;;;;;;;;;;;;-142.75;100.00;76442.34;5023247;28;19928;-70
2022/06/18 04:07:49;;;;;;;;;;;;;;;-142.75;100.00;76440.38;5029567;28;19917;-71
2022/06/18 04:10:16;;;;;;;;;;;;;;;-142.75;100.00;76444.31;5016341;28;20045;-70
2022/06/18 04:12:42;;;;;;;;;;;;;;;-142.75;100.00;76444.31;5012496;28;20020;-70
2022/06/18 04:15:07;;;;;;;;;;;;;;;-142.75;100.00;76448.25;5009950;28;19972;-68
2022/06/18 04:17:33;;;;;;;;;;;;;;;-142.75;100.00;76444.31;5010099;28;19925;-70
2022/06/18 04:19:58;;;;;;;;;;;;;;;-142.75;100.00;76448.25;5009807;28;19932;-70
2022/06/18 04:22:23;;;;;;;;;;;;;;;-142.75;100.00;76450.22;5009863;28;19922;-70
2022/06/18 04:24:48;;;;;;;;;;;;;;;-142.75;100.00;76456.13;5010831;28;19923;-70
2022/06/18 04:27:14;;;;;;;;;;;;;;;-142.75;100.00;76456.13;4997734;28;20043;-69
2022/06/18 04:29:39;;;;;;;;;;;;;;;-142.75;100.00;76452.19;5027529;28;20405;-68
2022/06/18 04:32:04;;;;;;;;;;;;;;;-142.75;100.00;76456.13;5014545;28;20302;-70
2022/06/18 04:34:29;;;;;;;;;;;;;;;-142.75;100.00;76460.06;5011492;28;19921;-71
2022/06/18 04:36:54;;;;;;;;;;;;;;;-142.75;100.00;76464.00;5011580;28;20385;-70
2022/06/18 04:39:20;;;;;;;;;;;;;;;-142.75;100.00;76464.00;5026584;28;19917;-70
2022/06/18 04:41:46;;;;;;;;;;;;;;;-142.75;100.00;76456.13;5013837;28;20362;-71
2022/06/18 04:44:12;;;;;;;;;;;;;;;-142.75;100.00;76462.03;5011138;28;20522;-69
2022/06/18 04:46:37;;;;;;;;;;;;;;;-142.75;100.00;76458.09;5011422;28;19918;-70
2022/06/18 04:49:03;;;;;;;;;;;;;;;-142.75;100.00;76452.19;5009267;28;19917;-69
2022/06/18 04:51:28;;;;;;;;;;;;;;;-142.75;100.00;76448.25;5009628;28;20482;-70
2022/06/18 04:53:54;;;;;;;;;;;;;;;-142.75;100.00;76448.25;4991856;28;19927;-70
2022/06/18 04:56:19;;;;;;;;;;;;;;;-142.75;100.00;76448.25;5010294;28;20303;-69
2022/06/18 04:58:44;;;;;;;;;;;;;;;-142.75;100.00;76432.50;5009154;28;20574;-70
2022/06/18 05:01:14;;;;;;;;;;;;;;;-142.75;100.00;76424.63;5009204;28;19925;-70
2022/06/18 05:03:39;;;;;;;;;;;;;;;-142.75;100.00;76422.66;5014388;28;19960;-68
2022/06/18 05:06:04;;;;;;;;;;;;;;;-142.75;100.00;76410.84;5016663;28;20031;-69
2022/06/18 05:08:30;;;;;;;;;;;;;;;-142.75;100.00;76402.97;5011542;28;20399;-71
2022/06/18 05:10:55;;;;;;;;;;;;;;;-142.75;100.00;76397.06;5006514;28;19917;-71
2022/06/18 05:13:20;;;;;;;;;;;;;;;-142.75;100.00;76383.28;5005893;28;19917;-71
2022/06/18 05:15:46;;;;;;;;;;;;;;;-142.75;100.00;76379.34;5019732;28;19921;-71
2022/06/18 05:18:13;;;;;;;;;;;;;;;-142.75;100.00;76369.50;5024382;28;19924;-68
2022/06/18 05:20:38;;;;;;;;;;;;;;;-142.75;100.00;76355.72;5032914;28;20003;-70
2022/06/18 05:23:03;;;;;;;;;;;;;;;-142.75;100.00;76345.91;5011534;28;19973;-70
2022/06/18 05:25:28;;;;;;;;;;;;;;;-142.75;100.00;76345.91;5033300;28;20420;-70
2022/06/18 05:27:54;;;;;;;;;;;;;;;-142.75;100.00;76326.22;5024168;28;19925;-70
2022/06/18 05:30:25;;;;;;;;;;;;;;;-142.75;100.00;76324.25;5012955;28;19918;-69
2022/06/18 05:32:51;;;;;;;;;;;;;;;-142.75;100.00;76310.47;5013067;28;20382;-71
2022/06/18 05:35:16;;;;;;;;;;;;;;;-142.75;100.00;76298.66;5012715;28;19929;-69
2022/06/18 05:37:41;;;;;;;;;;;;;;;-142.75;100.00;76286.84;5012987;28;19958;-71
2022/06/18 05:40:07;;;;;;;;;;;;;;;-142.75;100.00;76275.03;5012865;28;19918;-72
2022/06/18 05:42:33;;;;;;;;;;;;;;;-142.75;100.00;76273.06;5012833;28;20008;-71
2022/06/18 05:44:58;;;;;;;;;;;;;;;-142.75;100.00;76263.22;5012855;28;19997;-72
2022/06/18 05:47:28;;;;;;;;;;;;;;;-142.75;100.00;76257.31;5012843;28;20020;-72
2022/06/18 05:49:56;;;;;;;;;;;;;;;-142.75;100.00;76259.28;5011441;28;20005;-71
2022/06/18 05:52:21;;;;;;;;;;;;;;;-142.75;100.00;76241.56;5011760;28;19932;-73
2022/06/18 05:54:47;;;;;;;;;;;;;;;-142.75;100.00;76231.72;5012228;28;19921;-71
2022/06/18 05:57:13;;;;;;;;;;;;;;;-142.75;100.00;76225.81;5011999;28;19939;-71
2022/06/18 05:59:38;;;;;;;;;;;;;;;-142.75;100.00;76225.81;5011361;28;20375;-72
2022/06/18 06:02:03;;;;;;;;;;;;;;;-142.75;100.00;76217.94;5011767;28;20466;-71
2022/06/18 06:04:29;;;;;;;;;;;;;;;-142.75;100.00;76206.13;4993552;28;19975;-71
2022/06/18 06:06:54;;;;;;;;;;;;;;;-142.75;100.00;76200.25;5025668;28;19931;-71
2022/06/18 06:12:04;;;;;;;;;;;;;;;-142.75;100.00;76190.41;5031342;28;19974;-71
2022/06/18 06:14:30;;;;;;;;;;;;;;;-142.75;100.00;76180.56;5030745;28;19921;-71
2022/06/18 06:16:57;;;;;;;;;;;;;;;-142.75;100.00;76184.50;5030954;28;19925;-71
2022/06/18 06:19:22;;;;;;;;;;;;;;;-142.75;100.00;76178.59;5012655;28;19925;-72
2022/06/18 06:21:47;;;;;;;;;;;;;;;-142.75;100.00;76168.75;5030754;28;19928;-71
2022/06/18 06:24:13;;;;;;;;;;;;;;;-142.75;100.00;76166.78;5030653;28;20019;-71
2022/06/18 06:26:38;;;;;;;;;;;;;;;-142.75;100.00;76166.78;5031491;28;19917;-71
2022/06/18 06:29:03;;;;;;;;;;;;;;;-142.75;100.00;76153.00;5030434;28;20114;-71
2022/06/18 06:31:28;;;;;;;;;;;;;;;-142.75;100.00;76135.28;5030804;28;19925;-71
2022/06/18 06:33:54;;;;;;;;;;;;;;;-142.75;100.00;76129.38;5030201;28;20371;-73
2022/06/18 06:36:20;;;;;;;;;;;;;;;-142.75;100.00;76107.72;5012807;28;20399;-71
2022/06/18 06:38:45;;;;;;;;;;;;;;;-142.75;100.00;76105.75;5012603;28;19917;-72
2022/06/18 06:41:12;;;;;;;;;;;;;;;-142.75;100.00;76093.94;5030933;28;19924;-71
2022/06/18 06:43:37;;;;;;;;;;;;;;;-142.75;100.00;76090.00;5030999;28;19987;-72
2022/06/18 06:46:02;;;;;;;;;;;;;;;-142.75;100.00;76097.88;5013443;28;19917;-71
2022/06/18 06:48:28;;;;;;;;;;;;;;;-142.75;100.00;76080.16;5031005;28;19924;-71
2022/06/18 06:50:53;;;;;;;;;;;;;;;-142.75;100.00;76062.47;5031329;28;19939;-72
2022/06/18 06:53:19;;;;;;;;;;;;;;;-142.75;100.00;76054.59;5031049;28;19999;-71
2022/06/18 06:58:28;;;;;;;;;;;;;;;-142.75;100.00;76038.84;5011241;28;19924;-71
2022/06/18 07:00:55;;;;;;;;;;;;;;;-142.75;100.00;76030.97;5011224;28;19917;-70
2022/06/18 07:03:25;;;;;;;;;;;;;;;-142.75;100.00;76030.97;5011219;28;19924;-71
2022/06/18 07:05:50;;;;;;;;;;;;;;;-142.75;100.00;76011.28;5022385;28;19925;-70
2022/06/18 07:08:15;;;;;;;;;;;;;;;-142.75;100.00;76003.41;5012656;28;19917;-70
2022/06/18 07:10:40;;;;;;;;;;;;;;;-142.75;100.00;75991.59;5030827;28;20007;-71
2022/06/18 07:13:06;;;;;;;;;;;;;;;-142.75;100.00;75977.81;5030743;28;20290;-72
2022/06/18 07:15:32;;;;;;;;;;;;;;;-142.75;100.00;75969.94;5030807;28;19924;-72
2022/06/18 07:17:58;;;;;;;;;;;;;;;-142.75;100.00;75956.19;5027883;28;19917;-71
2022/06/18 07:20:23;;;;;;;;;;;;;;;-142.75;100.00;75948.31;5010903;28;19972;-69
2022/06/18 07:22:48;;;;;;;;;;;;;;;-142.75;100.00;75942.41;5022233;28;19918;-70
2022/06/18 07:25:14;;;;;;;;;;;;;;;-142.75;100.00;75938.47;5011917;28;19921;-72
2022/06/18 07:27:40;;;;;;;;;;;;;;;-142.75;100.00;75918.78;5011007;28;19933;-72
2022/06/18 07:30:08;;;;;;;;;;;;;;;-142.75;100.00;75922.72;5010687;28;20498;-72
2022/06/18 07:32:34;;;;;;;;;;;;;;;-142.75;100.00;75914.84;5010753;28;19927;-72
2022/06/18 07:34:59;;;;;;;;;;;;;;;-142.75;100.00;75899.09;5029508;28;19921;-72
2022/06/18 07:37:25;;;;;;;;;;;;;;;-142.75;100.00;75889.25;5030156;28;19917;-74
2022/06/18 07:39:50;;;;;;;;;;;;;;;-142.75;100.00;75877.44;5011942;28;20437;-72
2022/06/18 07:42:17;;;;;;;;;;;;;;;-142.75;100.00;75855.81;5030218;28;20019;-73
2022/06/18 07:44:43;;;;;;;;;;;;;;;-142.75;100.00;75842.03;5030495;28;20341;-72
2022/06/18 07:47:12;;;;;;;;;;;;;;;-142.75;100.00;75836.13;5012122;28;19917;-70
2022/06/18 07:49:37;;;;;;;;;;;;;;;-142.75;100.00;75810.53;5009843;28;19921;-69
2022/06/18 07:52:02;;;;;;;;;;;;;;;-142.75;100.00;75824.31;5010496;28;20429;-70
2022/06/18 07:54:28;;;;;;;;;;;;;;;-142.75;100.00;75798.72;5010271;28;19917;-70
2022/06/18 07:56:53;;;;;;;;;;;;;;;-142.75;100.00;75788.88;5011424;28;20421;-70
2022/06/18 07:59:23;;;;;;;;;;;;;;;-142.75;100.00;75769.19;5010132;28;19917;-72
2022/06/18 08:01:48;;;;;;;;;;;;;;;-142.75;100.00;75767.22;5010347;28;19925;-70
2022/06/18 08:04:14;;;;;;;;;;;;;;;-142.75;100.00;75751.50;5010179;28;19922;-70
2022/06/18 08:06:39;;;;;;;;;;;;;;;-142.75;100.00;75753.47;5010195;28;20337;-70
2022/06/18 08:09:04;;;;;;;;;;;;;;;-142.75;100.00;75739.69;4992326;28;20079;-70
2022/06/18 08:11:29;;;;;;;;;;;;;;;-142.75;100.00;75718.03;5009978;28;19983;-69
2022/06/18 08:13:57;;;;;;;;;;;;;;;-142.75;100.00;75708.19;5009922;28;19917;-71
2022/06/18 08:16:22;;;;;;;;;;;;;;;-142.75;100.00;75704.25;5009900;28;20395;-71
2022/06/18 08:18:47;;;;;;;;;;;;;;;-142.75;100.00;75704.25;5009677;28;19917;-70
2022/06/18 08:21:15;;;;;;;;;;;;;;;-142.75;100.00;75698.34;4992291;28;19925;-70
2022/06/18 08:23:41;;;;;;;;;;;;;;;-142.75;100.00;75686.53;5009951;28;20004;-70
2022/06/18 08:26:06;;;;;;;;;;;;;;;-142.75;100.00;75664.91;5011640;28;20040;-71
2022/06/18 08:28:32;;;;;;;;;;;;;;;-142.75;100.00;75653.09;4993057;28;19917;-70
2022/06/18 08:30:57;;;;;;;;;;;;;;;-142.75;100.00;75639.31;5011193;28;19918;-70
2022/06/18 08:33:23;;;;;;;;;;;;;;;-142.75;100.00;75662.94;5010964;28;19922;-70
2022/06/18 08:35:48;;;;;;;;;;;;;;;-142.75;100.00;75629.47;5010982;28;20353;-70
2022/06/18 08:38:14;;;;;;;;;;;;;;;-142.75;100.00;75607.81;5010726;28;19925;-70
2022/06/18 08:40:50;;;;;;;;;;;;;;;-142.75;100.00;75594.06;5010998;28;19917;-70
2022/06/18 08:43:22;;;;;;;;;;;;;;;-142.75;100.00;75590.13;4993150;28;20272;-71
2022/06/18 08:45:56;;;;;;;;;;;;;;;-142.75;100.00;75574.38;5010677;28;19921;-70
2022/06/18 08:48:40;;;;;;;;;;;;;;;-142.75;100.00;75560.59;5010625;28;19918;-71
2022/06/18 08:51:44;;;;;;;;;;;;;;;-142.75;100.00;75566.50;5010892;28;19917;-71
2022/06/18 08:54:12;;;;;;;;;;;;;;;-142.75;100.00;75531.06;4949874;29;20384;-70
2022/06/18 08:56:56;;;;;;;;;;;;;;;-142.75;100.00;75515.31;4950634;29;19922;-70
2022/06/18 08:59:24;;;;;;;;;;;;;;;-142.75;100.00;75495.66;4986246;28;19917;-70
2022/06/18 09:01:52;;;;;;;;;;;;;;;-142.75;100.00;75491.72;5010649;28;20419;-70
2022/06/18 09:04:26;;;;;;;;;;;;;;;-142.75;100.00;75479.91;4993095;28;19918;-70
2022/06/18 09:06:51;;;;;;;;;;;;;;;-142.75;100.00;75460.22;5010571;28;19932;-70
2022/06/18 09:09:35;;;;;;;;;;;;;;;-142.75;100.00;75456.28;5009877;28;19917;-70
2022/06/18 09:12:09;;;;;;;;;;;;;;;-142.75;100.00;75458.25;5009555;28;20379;-70
2022/06/18 09:14:43;;;;;;;;;;;;;;;-142.75;100.00;75448.41;5009027;28;19969;-70
2022/06/18 09:17:12;;;;;;;;;;;;;;;-142.75;100.00;75428.75;5009337;28;20290;-70
2022/06/18 09:19:40;;;;;;;;;;;;;;;-142.75;100.00;75424.81;4991466;28;20017;-70
2022/06/18 09:22:10;;;;;;;;;;;;;;;-142.75;100.00;75391.34;5009057;28;19925;-70
2022/06/18 09:24:42;;;;;;;;;;;;;;;-142.75;100.00;75381.50;4991510;28;19921;-71
2022/06/18 09:27:11;;;;;;;;;;;;;;;-142.75;100.00;75383.47;5009724;28;19917;-70
2022/06/18 09:29:55;;;;;;;;;;;;;;;-142.75;100.00;75352.00;5008688;28;20000;-69
2022/06/18 09:32:39;;;;;;;;;;;;;;;-142.75;100.00;75352.00;5009059;28;20004;-70
2022/06/18 09:35:14;;;;;;;;;;;;;;;-142.75;100.00;75357.91;5015949;28;20651;-70
2022/06/18 09:37:43;;;;;;;;;;;;;;;-142.75;100.00;75342.16;5013395;28;19918;-70
2022/06/18 09:40:27;;;;;;;;;;;;;;;-142.75;100.00;75330.34;5009069;28;19918;-71
2022/06/18 09:43:04;;;;;;;;;;;;;;;-142.75;100.00;75318.53;4975515;28;20399;-70
2022/06/18 09:45:37;;;;;;;;;;;;;;;-142.75;100.00;75292.97;4991220;28;19917;-69
2022/06/18 09:48:03;;;;;;;;;;;;;;;-142.75;100.00;75291.00;4992259;28;19917;-70
2022/06/18 09:50:31;;;;;;;;;;;;;;;-142.75;100.00;75267.38;5010286;28;19917;-71
2022/06/18 09:53:01;;;;;;;;;;;;;;;-142.75;100.00;75287.06;5010187;28;19924;-71
2022/06/18 09:55:37;;;;;;;;;;;;;;;-142.75;100.00;75273.28;5010373;28;20375;-71
2022/06/18 09:58:05;;;;;;;;;;;;;;;-142.75;100.00;75259.50;5010174;28;19918;-70
2022/06/18 10:00:32;;;;;;;;;;;;;;;-142.75;94.40;75253.59;5009283;28;21545;-71
2022/06/18 10:03:03;;;;;;;;;;;;;;;-142.75;100.00;75239.81;5013490;28;19923;-70
2022/06/18 10:08:15;;;;;;;;;;;;;;;-142.75;100.00;75249.66;5013689;28;19964;-70
2022/06/18 10:10:46;;;;;;;;;;;;;;;-142.75;95.79;75228.00;5013617;28;19922;-70
2022/06/18 10:13:18;;;;;;;;;;;;;;;-142.75;90.11;75263.44;5014652;28;19961;-70
2022/06/18 10:15:44;;;;;;;;;;;;;;;-142.75;100.00;75239.81;5013523;28;20443;-70
2022/06/18 10:18:27;;;;;;;;;;;;;;;-142.75;100.00;75206.38;5013178;28;20013;-70
2022/06/18 10:20:54;;;;;;;;;;;;;;;-142.75;100.00;75231.94;5013374;28;19918;-70
2022/06/18 10:23:45;;;;;;;;;;;;;;;-142.75;96.77;75198.50;5013372;28;19917;-70
2022/06/18 10:26:31;;;;;;;;;;;;;;;-142.75;93.01;75196.53;5013983;28;20272;-70
2022/06/18 10:29:15;;;;;;;;;;;;;;;-142.75;97.29;75184.72;5012864;28;19940;-69
2022/06/18 10:31:40;;;;;;;;;;;;;;;-142.75;85.60;75228.00;4995719;28;20421;-69
2022/06/18 10:34:22;;;;;;;;;;;;;;;-142.75;94.14;75208.34;5013164;28;19948;-69
2022/06/18 10:37:06;;;;;;;;;;;;;;;-142.75;100.00;75190.63;5013313;28;20356;-70
2022/06/18 10:39:42;;;;;;;;;;;;;;;-142.75;97.70;75176.84;4995218;28;19917;-70
2022/06/18 10:42:23;;;;;;;;;;;;;;;-142.75;91.70;75176.84;4995425;28;19924;-69
2022/06/18 10:44:51;;;;;;;;;;;;;;;-142.75;97.91;75188.66;5019855;28;19960;-70
2022/06/18 10:47:17;;;;;;;;;;;;;;;-142.75;99.57;75190.63;5032757;28;19921;-70
2022/06/18 10:49:43;;;;;;;;;;;;;;;-142.75;92.73;75182.75;5032429;28;19917;-69
2022/06/18 10:52:19;;;;;;;;;;;;;;;-142.75;88.34;75161.13;5032806;28;20032;-70
2022/06/18 10:54:45;;;;;;;;;;;;;;;-142.75;90.41;75147.34;5014648;28;20499;-70
2022/06/18 10:57:21;;;;;;;;;;;;;;;-142.75;100.00;75161.13;5032788;28;19971;-69
2022/06/18 10:59:46;;;;;;;;;;;;;;;-142.75;96.80;75121.75;5032253;28;20390;-70
2022/06/18 11:02:20;;;;;;;;;;;;;;;-142.75;98.31;75125.69;5014786;28;19964;-70
2022/06/18 11:04:54;;;;;;;;;;;;;;;-142.75;100.00;75113.88;5014583;28;19962;-69
2022/06/18 11:07:21;;;;;;;;;;;;;;;-142.75;99.06;75090.28;5032112;28;19995;-70
2022/06/18 11:09:46;;;;;;;;;;;;;;;-142.75;100.00;75090.28;5014313;28;19916;-70
2022/06/18 11:12:23;;;;;;;;;;;;;;;-142.75;98.75;75070.59;5031379;28;19962;-70
2022/06/18 11:14:48;;;;;;;;;;;;;;;-142.75;85.45;75080.44;5031820;28;20359;-70
2022/06/18 11:17:33;;;;;;;;;;;;;;;-142.75;91.19;75125.69;5032230;28;19925;-70
2022/06/18 11:20:16;;;;;;;;;;;;;;;-142.75;98.58;75113.88;5031789;28;20000;-70
2022/06/18 11:22:42;;;;;;;;;;;;;;;-142.75;91.85;75106.00;5031673;28;19968;-70
2022/06/18 11:25:26;;;;;;;;;;;;;;;-142.75;93.46;75106.00;5032004;28;20359;-70
2022/06/18 11:27:52;;;;;;;;;;;;;;;-142.75;97.50;75121.75;5032285;28;19924;-68
2022/06/18 11:30:21;;;;;;;;;;;;;;;-142.75;97.03;75098.16;5031640;28;20448;-69
2022/06/18 11:32:47;;;;;;;;;;;;;;;-142.75;100.00;75102.06;5031887;28;19925;-69
2022/06/18 11:35:19;;;;;;;;;;;;;;;-142.75;95.98;75096.19;5013977;28;19921;-69
2022/06/18 11:37:54;;;;;;;;;;;;;;;-142.75;94.18;75084.38;5030483;28;19944;-69
2022/06/18 11:40:20;;;;;;;;;;;;;;;-142.75;89.83;75086.34;5031650;28;19924;-69
2022/06/18 11:42:45;;;;;;;;;;;;;;;-142.75;87.94;75100.09;5031298;28;19925;-69
2022/06/18 11:45:16;;;;;;;;;;;;;;;-142.75;93.40;75106.00;5031550;28;19917;-69
2022/06/18 11:47:49;;;;;;;;;;;;;;;-142.75;100.00;75086.34;5031559;28;19917;-68
2022/06/18 11:50:19;;;;;;;;;;;;;;;-142.75;93.27;75100.09;5031637;28;20361;-69
2022/06/18 11:52:50;;;;;;;;;;;;;;;-142.75;84.69;75143.41;5031359;28;19936;-69
2022/06/18 11:55:27;;;;;;;;;;;;;;;-142.75;93.31;75119.78;5031141;28;19929;-69
2022/06/18 11:57:55;;;;;;;;;;;;;;;-142.75;93.64;75117.81;5031700;28;19917;-68
2022/06/18 12:00:28;;;;;;;;;;;;;;;-142.75;94.86;75159.16;5013538;28;19917;-69
2022/06/18 12:02:59;;;;;;;;;;;;;;;-142.75;100.00;75117.81;5031368;28;19960;-68
2022/06/18 12:05:35;;;;;;;;;;;;;;;-142.75;93.65;75102.06;5031212;28;19921;-69
2022/06/18 12:08:01;;;;;;;;;;;;;;;-142.75;100.00;75092.25;5013066;28;19963;-70
2022/06/18 12:10:46;;;;;;;;;;;;;;;-142.75;97.32;75062.72;5031135;28;19931;-69
2022/06/18 12:13:15;;;;;;;;;;;;;;;-142.75;89.27;75076.50;5030713;28;20383;-69
2022/06/18 12:15:47;;;;;;;;;;;;;;;-142.75;84.54;75086.34;5030980;28;19927;-69
2022/06/18 12:18:12;;;;;;;;;;;;;;;-142.75;92.12;75074.53;5030633;28;20452;-69
2022/06/18 12:20:40;;;;;;;;;;;;;;;-142.75;98.50;75045.00;5030711;28;20020;-69
2022/06/18 12:23:21;;;;;;;;;;;;;;;-142.75;94.15;75043.03;5030959;28;20279;-70
2022/06/18 12:25:52;;;;;;;;;;;;;;;-142.75;88.48;75046.97;5030698;28;20105;-69
2022/06/18 12:28:17;;;;;;;;;;;;;;;-142.75;90.20;75039.13;5030812;28;19917;-69
2022/06/18 12:30:52;;;;;;;;;;;;;;;-142.75;92.38;75037.16;5018392;28;19925;-69
2022/06/18 12:33:17;;;;;;;;;;;;;;;-142.75;95.56;75045.00;4993476;28;19918;-69
2022/06/18 12:35:53;;;;;;;;;;;;;;;-142.75;100.00;75039.13;5011051;28;19944;-69
2022/06/18 12:38:24;;;;;;;;;;;;;;;-142.75;88.46;75046.97;5010839;28;19987;-70